sensor_id;sensor_type;location;lat;lon;timestamp;P1;durP1;ratioP1;P2;durP2;ratioP2
22881;SDS011;11608;50.894;5.296;2023-05-31T00:00:47;25.23;;;23.17;;
22881;SDS011;11608;50.894;5.296;2023-05-31T00:03:13;24.98;;;23.08;;
22881;SDS011;11608;50.894;5.296;2023-05-31T00:05:39;25.52;;;23.27;;
22881;SDS011;11608;50.894;5.296;2023-05-31T00:08:05;25.17;;;23.30;;
22881;SDS011;11608;50.894;5.296;2023-05-31T00:10:31;25.70;;;23.50;;
22881;SDS011;11608;50.894;5.296;2023-05-31T00:12:57;26.08;;;24.15;;
22881;SDS011;11608;50.894;5.296;2023-05-31T00:15:23;25.02;;;22.95;;
22881;SDS011;11608;50.894;5.296;2023-05-31T00:17:49;25.67;;;23.60;;
22881;SDS011;11608;50.894;5.296;2023-05-31T00:20:16;24.50;;;22.63;;
22881;SDS011;11608;50.894;5.296;2023-05-31T00:22:42;25.98;;;23.88;;
22881;SDS011;11608;50.894;5.296;2023-05-31T00:25:08;25.63;;;23.50;;
22881;SDS011;11608;50.894;5.296;2023-05-31T00:27:34;25.42;;;23.42;;
22881;SDS011;11608;50.894;5.296;2023-05-31T00:30:00;25.75;;;23.75;;
22881;SDS011;11608;50.894;5.296;2023-05-31T00:32:26;26.17;;;23.98;;
22881;SDS011;11608;50.894;5.296;2023-05-31T00:34:52;26.25;;;24.05;;
22881;SDS011;11608;50.894;5.296;2023-05-31T00:37:18;27.25;;;24.80;;
22881;SDS011;11608;50.894;5.296;2023-05-31T00:39:44;25.45;;;23.40;;
22881;SDS011;11608;50.894;5.296;2023-05-31T00:42:10;26.08;;;23.98;;
22881;SDS011;11608;50.894;5.296;2023-05-31T00:44:36;25.63;;;23.70;;
22881;SDS011;11608;50.894;5.296;2023-05-31T00:47:02;25.95;;;23.85;;
22881;SDS011;11608;50.894;5.296;2023-05-31T00:49:28;26.58;;;24.27;;
22881;SDS011;11608;50.894;5.296;2023-05-31T00:51:55;27.40;;;24.95;;
22881;SDS011;11608;50.894;5.296;2023-05-31T00:54:21;26.80;;;24.50;;
22881;SDS011;11608;50.894;5.296;2023-05-31T00:56:48;26.65;;;24.55;;
22881;SDS011;11608;50.894;5.296;2023-05-31T00:59:14;27.35;;;25.05;;
22881;SDS011;11608;50.894;5.296;2023-05-31T01:01:41;26.38;;;24.23;;
22881;SDS011;11608;50.894;5.296;2023-05-31T01:04:07;27.25;;;25.05;;
22881;SDS011;11608;50.894;5.296;2023-05-31T01:06:33;27.90;;;25.58;;
22881;SDS011;11608;50.894;5.296;2023-05-31T01:09:01;26.92;;;24.85;;
22881;SDS011;11608;50.894;5.296;2023-05-31T01:16:53;28.25;;;25.75;;
22881;SDS011;11608;50.894;5.296;2023-05-31T01:19:33;27.33;;;25.13;;
22881;SDS011;11608;50.894;5.296;2023-05-31T01:22:07;28.05;;;25.75;;
22881;SDS011;11608;50.894;5.296;2023-05-31T01:27:24;27.58;;;25.20;;
22881;SDS011;11608;50.894;5.296;2023-05-31T01:29:51;28.65;;;26.38;;
22881;SDS011;11608;50.894;5.296;2023-05-31T01:32:18;27.75;;;25.23;;
22881;SDS011;11608;50.894;5.296;2023-05-31T01:34:45;28.65;;;26.13;;
22881;SDS011;11608;50.894;5.296;2023-05-31T01:37:12;28.00;;;25.80;;
22881;SDS011;11608;50.894;5.296;2023-05-31T01:39:38;28.60;;;26.30;;
22881;SDS011;11608;50.894;5.296;2023-05-31T01:42:04;27.52;;;25.33;;
22881;SDS011;11608;50.894;5.296;2023-05-31T01:44:31;28.70;;;26.40;;
22881;SDS011;11608;50.894;5.296;2023-05-31T01:46:57;26.65;;;24.45;;
22881;SDS011;11608;50.894;5.296;2023-05-31T01:49:24;27.15;;;24.52;;
22881;SDS011;11608;50.894;5.296;2023-05-31T01:51:50;27.90;;;25.67;;
22881;SDS011;11608;50.894;5.296;2023-05-31T01:54:17;27.67;;;25.38;;
22881;SDS011;11608;50.894;5.296;2023-05-31T01:56:43;27.70;;;25.35;;
22881;SDS011;11608;50.894;5.296;2023-05-31T01:59:11;27.13;;;24.92;;
22881;SDS011;11608;50.894;5.296;2023-05-31T02:01:37;28.13;;;25.95;;
22881;SDS011;11608;50.894;5.296;2023-05-31T02:04:03;27.08;;;24.80;;
22881;SDS011;11608;50.894;5.296;2023-05-31T02:06:30;27.75;;;25.45;;
22881;SDS011;11608;50.894;5.296;2023-05-31T02:08:56;27.90;;;25.27;;
22881;SDS011;11608;50.894;5.296;2023-05-31T02:11:23;28.45;;;25.98;;
22881;SDS011;11608;50.894;5.296;2023-05-31T02:13:49;27.65;;;25.42;;
22881;SDS011;11608;50.894;5.296;2023-05-31T02:16:15;27.80;;;25.50;;
22881;SDS011;11608;50.894;5.296;2023-05-31T02:18:41;27.70;;;25.42;;
22881;SDS011;11608;50.894;5.296;2023-05-31T02:21:07;28.00;;;25.77;;
22881;SDS011;11608;50.894;5.296;2023-05-31T02:23:33;28.02;;;25.48;;
22881;SDS011;11608;50.894;5.296;2023-05-31T02:25:59;27.83;;;25.52;;
22881;SDS011;11608;50.894;5.296;2023-05-31T02:28:25;28.15;;;25.75;;
22881;SDS011;11608;50.894;5.296;2023-05-31T02:33:20;28.48;;;25.90;;
22881;SDS011;11608;50.894;5.296;2023-05-31T02:35:47;28.17;;;25.98;;
22881;SDS011;11608;50.894;5.296;2023-05-31T02:38:13;29.75;;;27.17;;
22881;SDS011;11608;50.894;5.296;2023-05-31T02:40:39;29.60;;;27.10;;
22881;SDS011;11608;50.894;5.296;2023-05-31T02:43:05;29.95;;;27.45;;
22881;SDS011;11608;50.894;5.296;2023-05-31T02:45:31;29.13;;;26.73;;
22881;SDS011;11608;50.894;5.296;2023-05-31T02:47:57;29.25;;;26.85;;
22881;SDS011;11608;50.894;5.296;2023-05-31T02:50:26;29.50;;;27.02;;
22881;SDS011;11608;50.894;5.296;2023-05-31T02:52:52;30.30;;;27.73;;
22881;SDS011;11608;50.894;5.296;2023-05-31T02:55:18;30.33;;;27.83;;
22881;SDS011;11608;50.894;5.296;2023-05-31T02:57:44;30.60;;;27.95;;
22881;SDS011;11608;50.894;5.296;2023-05-31T03:00:11;29.13;;;26.73;;
22881;SDS011;11608;50.894;5.296;2023-05-31T03:02:40;29.52;;;27.10;;
22881;SDS011;11608;50.894;5.296;2023-05-31T03:05:06;30.38;;;27.77;;
22881;SDS011;11608;50.894;5.296;2023-05-31T03:07:34;29.73;;;27.40;;
22881;SDS011;11608;50.894;5.296;2023-05-31T03:10:00;29.45;;;26.95;;
22881;SDS011;11608;50.894;5.296;2023-05-31T03:12:29;30.33;;;27.63;;
22881;SDS011;11608;50.894;5.296;2023-05-31T03:14:55;30.05;;;27.55;;
22881;SDS011;11608;50.894;5.296;2023-05-31T03:17:21;30.95;;;28.30;;
22881;SDS011;11608;50.894;5.296;2023-05-31T03:19:47;30.75;;;28.23;;
22881;SDS011;11608;50.894;5.296;2023-05-31T03:22:14;31.15;;;28.63;;
22881;SDS011;11608;50.894;5.296;2023-05-31T03:24:40;31.48;;;28.85;;
22881;SDS011;11608;50.894;5.296;2023-05-31T03:27:06;32.75;;;29.58;;
22881;SDS011;11608;50.894;5.296;2023-05-31T03:29:33;31.92;;;29.10;;
22881;SDS011;11608;50.894;5.296;2023-05-31T03:31:59;30.40;;;27.88;;
22881;SDS011;11608;50.894;5.296;2023-05-31T03:34:25;30.95;;;28.13;;
22881;SDS011;11608;50.894;5.296;2023-05-31T03:36:52;30.05;;;27.45;;
22881;SDS011;11608;50.894;5.296;2023-05-31T03:39:18;31.17;;;28.48;;
22881;SDS011;11608;50.894;5.296;2023-05-31T03:41:44;30.90;;;28.25;;
22881;SDS011;11608;50.894;5.296;2023-05-31T03:44:10;32.00;;;29.20;;
22881;SDS011;11608;50.894;5.296;2023-05-31T03:46:36;30.88;;;27.75;;
22881;SDS011;11608;50.894;5.296;2023-05-31T03:49:02;31.58;;;28.75;;
22881;SDS011;11608;50.894;5.296;2023-05-31T03:51:30;31.85;;;29.05;;
22881;SDS011;11608;50.894;5.296;2023-05-31T03:53:56;31.48;;;28.75;;
22881;SDS011;11608;50.894;5.296;2023-05-31T03:56:22;31.63;;;28.63;;
22881;SDS011;11608;50.894;5.296;2023-05-31T03:58:48;31.17;;;28.42;;
22881;SDS011;11608;50.894;5.296;2023-05-31T04:01:15;31.65;;;29.00;;
22881;SDS011;11608;50.894;5.296;2023-05-31T04:03:42;31.80;;;28.55;;
22881;SDS011;11608;50.894;5.296;2023-05-31T04:06:08;31.60;;;28.77;;
22881;SDS011;11608;50.894;5.296;2023-05-31T04:08:35;33.92;;;30.50;;
22881;SDS011;11608;50.894;5.296;2023-05-31T04:11:01;32.13;;;29.17;;
22881;SDS011;11608;50.894;5.296;2023-05-31T04:13:27;33.00;;;29.90;;
22881;SDS011;11608;50.894;5.296;2023-05-31T04:15:53;31.67;;;28.77;;
22881;SDS011;11608;50.894;5.296;2023-05-31T04:18:19;32.15;;;29.15;;
22881;SDS011;11608;50.894;5.296;2023-05-31T04:20:45;32.55;;;29.65;;
22881;SDS011;11608;50.894;5.296;2023-05-31T04:23:11;32.08;;;29.27;;
22881;SDS011;11608;50.894;5.296;2023-05-31T04:25:37;31.98;;;28.90;;
22881;SDS011;11608;50.894;5.296;2023-05-31T04:28:04;33.05;;;29.88;;
22881;SDS011;11608;50.894;5.296;2023-05-31T04:30:32;32.05;;;29.08;;
22881;SDS011;11608;50.894;5.296;2023-05-31T04:32:59;31.60;;;28.70;;
22881;SDS011;11608;50.894;5.296;2023-05-31T04:35:26;32.10;;;29.23;;
22881;SDS011;11608;50.894;5.296;2023-05-31T04:37:54;31.35;;;28.55;;
22881;SDS011;11608;50.894;5.296;2023-05-31T04:40:24;30.98;;;28.08;;
22881;SDS011;11608;50.894;5.296;2023-05-31T04:42:50;31.40;;;28.42;;
22881;SDS011;11608;50.894;5.296;2023-05-31T04:45:16;32.58;;;29.67;;
22881;SDS011;11608;50.894;5.296;2023-05-31T04:47:42;31.05;;;28.10;;
22881;SDS011;11608;50.894;5.296;2023-05-31T04:50:10;31.60;;;28.70;;
22881;SDS011;11608;50.894;5.296;2023-05-31T04:52:36;31.83;;;28.63;;
22881;SDS011;11608;50.894;5.296;2023-05-31T04:55:05;32.88;;;29.73;;
22881;SDS011;11608;50.894;5.296;2023-05-31T04:57:32;32.72;;;29.77;;
22881;SDS011;11608;50.894;5.296;2023-05-31T04:59:58;32.63;;;29.55;;
22881;SDS011;11608;50.894;5.296;2023-05-31T05:02:24;31.65;;;28.58;;
22881;SDS011;11608;50.894;5.296;2023-05-31T05:04:52;31.80;;;28.77;;
22881;SDS011;11608;50.894;5.296;2023-05-31T05:07:18;31.35;;;28.45;;
22881;SDS011;11608;50.894;5.296;2023-05-31T05:09:45;29.73;;;26.90;;
22881;SDS011;11608;50.894;5.296;2023-05-31T05:12:11;31.65;;;28.77;;
22881;SDS011;11608;50.894;5.296;2023-05-31T05:14:38;31.73;;;28.75;;
22881;SDS011;11608;50.894;5.296;2023-05-31T05:17:04;31.30;;;28.50;;
22881;SDS011;11608;50.894;5.296;2023-05-31T05:19:30;31.92;;;28.83;;
22881;SDS011;11608;50.894;5.296;2023-05-31T05:21:56;31.42;;;28.55;;
22881;SDS011;11608;50.894;5.296;2023-05-31T05:24:22;32.00;;;29.05;;
22881;SDS011;11608;50.894;5.296;2023-05-31T05:26:48;31.23;;;28.58;;
22881;SDS011;11608;50.894;5.296;2023-05-31T05:29:14;31.23;;;28.30;;
22881;SDS011;11608;50.894;5.296;2023-05-31T05:31:41;31.17;;;28.38;;
22881;SDS011;11608;50.894;5.296;2023-05-31T05:34:07;30.50;;;27.75;;
22881;SDS011;11608;50.894;5.296;2023-05-31T05:36:34;31.52;;;28.60;;
22881;SDS011;11608;50.894;5.296;2023-05-31T05:39:01;32.13;;;29.10;;
22881;SDS011;11608;50.894;5.296;2023-05-31T05:41:29;30.70;;;28.08;;
22881;SDS011;11608;50.894;5.296;2023-05-31T05:43:55;30.45;;;27.85;;
22881;SDS011;11608;50.894;5.296;2023-05-31T05:46:21;31.02;;;28.25;;
22881;SDS011;11608;50.894;5.296;2023-05-31T05:48:47;29.95;;;27.27;;
22881;SDS011;11608;50.894;5.296;2023-05-31T05:51:13;30.58;;;27.85;;
22881;SDS011;11608;50.894;5.296;2023-05-31T05:53:39;31.08;;;27.98;;
22881;SDS011;11608;50.894;5.296;2023-05-31T05:56:05;30.70;;;27.70;;
22881;SDS011;11608;50.894;5.296;2023-05-31T05:58:31;30.58;;;28.00;;
22881;SDS011;11608;50.894;5.296;2023-05-31T06:00:57;30.23;;;27.65;;
22881;SDS011;11608;50.894;5.296;2023-05-31T06:03:24;28.83;;;26.20;;
22881;SDS011;11608;50.894;5.296;2023-05-31T06:05:50;30.10;;;27.58;;
22881;SDS011;11608;50.894;5.296;2023-05-31T06:08:16;29.80;;;27.17;;
22881;SDS011;11608;50.894;5.296;2023-05-31T06:10:43;30.35;;;27.58;;
22881;SDS011;11608;50.894;5.296;2023-05-31T06:13:09;30.63;;;27.55;;
22881;SDS011;11608;50.894;5.296;2023-05-31T06:15:36;29.27;;;26.77;;
22881;SDS011;11608;50.894;5.296;2023-05-31T06:18:02;29.75;;;27.08;;
22881;SDS011;11608;50.894;5.296;2023-05-31T06:20:29;29.90;;;27.38;;
22881;SDS011;11608;50.894;5.296;2023-05-31T06:22:55;28.52;;;26.13;;
22881;SDS011;11608;50.894;5.296;2023-05-31T06:25:21;28.75;;;26.33;;
22881;SDS011;11608;50.894;5.296;2023-05-31T06:27:47;28.90;;;26.50;;
22881;SDS011;11608;50.894;5.296;2023-05-31T06:30:14;30.17;;;27.45;;
22881;SDS011;11608;50.894;5.296;2023-05-31T06:32:40;30.15;;;27.60;;
22881;SDS011;11608;50.894;5.296;2023-05-31T06:35:06;29.23;;;26.42;;
22881;SDS011;11608;50.894;5.296;2023-05-31T06:37:32;29.25;;;26.75;;
22881;SDS011;11608;50.894;5.296;2023-05-31T06:39:58;30.08;;;27.52;;
22881;SDS011;11608;50.894;5.296;2023-05-31T06:42:25;28.67;;;25.98;;
22881;SDS011;11608;50.894;5.296;2023-05-31T06:44:51;29.38;;;26.67;;
22881;SDS011;11608;50.894;5.296;2023-05-31T06:47:17;28.95;;;26.33;;
22881;SDS011;11608;50.894;5.296;2023-05-31T06:49:43;28.95;;;26.23;;
22881;SDS011;11608;50.894;5.296;2023-05-31T06:52:09;27.98;;;25.52;;
22881;SDS011;11608;50.894;5.296;2023-05-31T06:54:36;28.30;;;26.00;;
22881;SDS011;11608;50.894;5.296;2023-05-31T06:57:03;29.60;;;27.02;;
22881;SDS011;11608;50.894;5.296;2023-05-31T06:59:29;28.52;;;25.95;;
22881;SDS011;11608;50.894;5.296;2023-05-31T07:01:55;27.17;;;24.98;;
22881;SDS011;11608;50.894;5.296;2023-05-31T07:04:21;28.58;;;26.05;;
22881;SDS011;11608;50.894;5.296;2023-05-31T07:06:48;27.38;;;25.15;;
22881;SDS011;11608;50.894;5.296;2023-05-31T07:09:14;27.30;;;24.77;;
22881;SDS011;11608;50.894;5.296;2023-05-31T07:11:40;29.60;;;26.58;;
22881;SDS011;11608;50.894;5.296;2023-05-31T07:14:06;27.80;;;25.58;;
22881;SDS011;11608;50.894;5.296;2023-05-31T07:16:32;27.83;;;25.10;;
22881;SDS011;11608;50.894;5.296;2023-05-31T07:18:59;27.88;;;25.38;;
22881;SDS011;11608;50.894;5.296;2023-05-31T07:21:25;27.27;;;24.88;;
22881;SDS011;11608;50.894;5.296;2023-05-31T07:23:51;27.27;;;24.60;;
22881;SDS011;11608;50.894;5.296;2023-05-31T07:26:17;26.92;;;24.67;;
22881;SDS011;11608;50.894;5.296;2023-05-31T07:28:43;27.80;;;25.13;;
22881;SDS011;11608;50.894;5.296;2023-05-31T07:31:10;26.83;;;24.42;;
22881;SDS011;11608;50.894;5.296;2023-05-31T07:33:36;25.50;;;23.40;;
22881;SDS011;11608;50.894;5.296;2023-05-31T07:36:02;24.88;;;22.77;;
22881;SDS011;11608;50.894;5.296;2023-05-31T07:38:28;24.25;;;22.25;;
22881;SDS011;11608;50.894;5.296;2023-05-31T07:40:55;26.13;;;23.65;;
22881;SDS011;11608;50.894;5.296;2023-05-31T07:43:22;25.58;;;23.23;;
22881;SDS011;11608;50.894;5.296;2023-05-31T07:45:48;23.80;;;21.77;;
22881;SDS011;11608;50.894;5.296;2023-05-31T07:48:16;25.80;;;23.20;;
22881;SDS011;11608;50.894;5.296;2023-05-31T07:50:42;25.55;;;23.38;;
22881;SDS011;11608;50.894;5.296;2023-05-31T07:53:08;25.08;;;22.88;;
22881;SDS011;11608;50.894;5.296;2023-05-31T07:55:34;24.33;;;22.42;;
22881;SDS011;11608;50.894;5.296;2023-05-31T07:58:01;25.08;;;22.70;;
22881;SDS011;11608;50.894;5.296;2023-05-31T08:00:27;25.80;;;23.10;;
22881;SDS011;11608;50.894;5.296;2023-05-31T08:02:53;25.13;;;22.70;;
22881;SDS011;11608;50.894;5.296;2023-05-31T08:05:19;25.17;;;22.98;;
22881;SDS011;11608;50.894;5.296;2023-05-31T08:07:45;24.42;;;22.27;;
22881;SDS011;11608;50.894;5.296;2023-05-31T08:10:12;24.30;;;21.55;;
22881;SDS011;11608;50.894;5.296;2023-05-31T08:12:38;24.50;;;22.40;;
22881;SDS011;11608;50.894;5.296;2023-05-31T08:15:04;23.55;;;21.55;;
22881;SDS011;11608;50.894;5.296;2023-05-31T08:17:30;23.30;;;21.50;;
22881;SDS011;11608;50.894;5.296;2023-05-31T08:19:56;24.90;;;22.40;;
22881;SDS011;11608;50.894;5.296;2023-05-31T08:22:22;26.38;;;23.67;;
22881;SDS011;11608;50.894;5.296;2023-05-31T08:24:49;23.50;;;21.30;;
22881;SDS011;11608;50.894;5.296;2023-05-31T08:27:15;24.02;;;21.92;;
22881;SDS011;11608;50.894;5.296;2023-05-31T08:29:42;23.65;;;21.45;;
22881;SDS011;11608;50.894;5.296;2023-05-31T08:32:08;24.33;;;21.85;;
22881;SDS011;11608;50.894;5.296;2023-05-31T08:34:35;24.92;;;22.10;;
22881;SDS011;11608;50.894;5.296;2023-05-31T08:37:01;23.95;;;21.55;;
22881;SDS011;11608;50.894;5.296;2023-05-31T08:39:27;24.48;;;22.33;;
22881;SDS011;11608;50.894;5.296;2023-05-31T08:44:23;22.90;;;20.65;;
22881;SDS011;11608;50.894;5.296;2023-05-31T08:46:50;23.48;;;21.48;;
22881;SDS011;11608;50.894;5.296;2023-05-31T08:49:16;22.42;;;20.48;;
22881;SDS011;11608;50.894;5.296;2023-05-31T08:51:43;22.83;;;20.77;;
22881;SDS011;11608;50.894;5.296;2023-05-31T08:54:16;22.80;;;20.83;;
22881;SDS011;11608;50.894;5.296;2023-05-31T08:56:43;21.63;;;19.67;;
22881;SDS011;11608;50.894;5.296;2023-05-31T08:59:10;22.48;;;20.48;;
22881;SDS011;11608;50.894;5.296;2023-05-31T09:01:38;21.75;;;19.85;;
22881;SDS011;11608;50.894;5.296;2023-05-31T09:04:04;21.63;;;19.85;;
22881;SDS011;11608;50.894;5.296;2023-05-31T09:06:33;23.02;;;20.92;;
22881;SDS011;11608;50.894;5.296;2023-05-31T09:08:59;23.67;;;21.50;;
22881;SDS011;11608;50.894;5.296;2023-05-31T09:11:26;22.40;;;20.40;;
22881;SDS011;11608;50.894;5.296;2023-05-31T09:13:52;22.63;;;20.67;;
22881;SDS011;11608;50.894;5.296;2023-05-31T09:16:22;23.65;;;21.48;;
22881;SDS011;11608;50.894;5.296;2023-05-31T09:18:58;22.38;;;20.48;;
22881;SDS011;11608;50.894;5.296;2023-05-31T09:21:25;22.73;;;20.63;;
22881;SDS011;11608;50.894;5.296;2023-05-31T09:23:52;22.45;;;20.27;;
22881;SDS011;11608;50.894;5.296;2023-05-31T09:26:18;22.60;;;20.50;;
22881;SDS011;11608;50.894;5.296;2023-05-31T09:28:51;22.17;;;20.38;;
22881;SDS011;11608;50.894;5.296;2023-05-31T09:31:17;21.98;;;19.98;;
22881;SDS011;11608;50.894;5.296;2023-05-31T09:33:44;21.58;;;19.58;;
22881;SDS011;11608;50.894;5.296;2023-05-31T09:36:11;22.75;;;20.40;;
22881;SDS011;11608;50.894;5.296;2023-05-31T09:38:38;21.83;;;19.55;;
22881;SDS011;11608;50.894;5.296;2023-05-31T09:41:11;22.60;;;20.13;;
22881;SDS011;11608;50.894;5.296;2023-05-31T09:43:41;23.02;;;20.77;;
22881;SDS011;11608;50.894;5.296;2023-05-31T09:46:17;23.23;;;20.95;;
22881;SDS011;11608;50.894;5.296;2023-05-31T09:48:44;21.67;;;19.75;;
22881;SDS011;11608;50.894;5.296;2023-05-31T09:51:12;23.73;;;21.15;;
22881;SDS011;11608;50.894;5.296;2023-05-31T09:53:39;22.60;;;20.52;;
22881;SDS011;11608;50.894;5.296;2023-05-31T09:56:27;23.00;;;20.67;;
22881;SDS011;11608;50.894;5.296;2023-05-31T09:58:52;23.67;;;21.23;;
22881;SDS011;11608;50.894;5.296;2023-05-31T10:01:21;23.13;;;20.98;;
22881;SDS011;11608;50.894;5.296;2023-05-31T10:03:48;21.70;;;19.77;;
22881;SDS011;11608;50.894;5.296;2023-05-31T10:06:15;24.50;;;22.08;;
22881;SDS011;11608;50.894;5.296;2023-05-31T10:08:42;22.58;;;20.48;;
22881;SDS011;11608;50.894;5.296;2023-05-31T10:11:08;22.45;;;20.58;;
22881;SDS011;11608;50.894;5.296;2023-05-31T10:13:38;22.52;;;20.55;;
22881;SDS011;11608;50.894;5.296;2023-05-31T10:16:06;23.08;;;21.05;;
22881;SDS011;11608;50.894;5.296;2023-05-31T10:18:34;24.70;;;22.33;;
22881;SDS011;11608;50.894;5.296;2023-05-31T10:21:09;24.17;;;21.75;;
22881;SDS011;11608;50.894;5.296;2023-05-31T10:23:41;22.70;;;20.67;;
22881;SDS011;11608;50.894;5.296;2023-05-31T10:26:12;23.08;;;21.15;;
22881;SDS011;11608;50.894;5.296;2023-05-31T10:31:15;21.60;;;19.63;;
22881;SDS011;11608;50.894;5.296;2023-05-31T10:33:47;24.10;;;21.73;;
22881;SDS011;11608;50.894;5.296;2023-05-31T10:36:14;22.92;;;20.80;;
22881;SDS011;11608;50.894;5.296;2023-05-31T10:38:52;21.55;;;19.63;;
22881;SDS011;11608;50.894;5.296;2023-05-31T10:41:21;23.25;;;19.88;;
22881;SDS011;11608;50.894;5.296;2023-05-31T10:43:55;23.20;;;20.83;;
22881;SDS011;11608;50.894;5.296;2023-05-31T10:46:25;22.05;;;19.83;;
22881;SDS011;11608;50.894;5.296;2023-05-31T10:48:55;22.25;;;20.02;;
22881;SDS011;11608;50.894;5.296;2023-05-31T10:51:37;21.80;;;19.80;;
22881;SDS011;11608;50.894;5.296;2023-05-31T10:54:04;21.35;;;19.45;;
22881;SDS011;11608;50.894;5.296;2023-05-31T10:56:31;21.95;;;19.98;;
22881;SDS011;11608;50.894;5.296;2023-05-31T10:58:57;22.83;;;20.80;;
22881;SDS011;11608;50.894;5.296;2023-05-31T11:01:23;21.48;;;19.45;;
22881;SDS011;11608;50.894;5.296;2023-05-31T11:03:54;22.42;;;20.35;;
22881;SDS011;11608;50.894;5.296;2023-05-31T11:06:31;20.85;;;18.80;;
22881;SDS011;11608;50.894;5.296;2023-05-31T11:09:10;21.50;;;19.50;;
22881;SDS011;11608;50.894;5.296;2023-05-31T11:14:06;21.65;;;19.65;;
22881;SDS011;11608;50.894;5.296;2023-05-31T11:16:33;22.75;;;20.40;;
22881;SDS011;11608;50.894;5.296;2023-05-31T11:19:03;21.75;;;19.75;;
22881;SDS011;11608;50.894;5.296;2023-05-31T11:26:54;22.17;;;20.17;;
22881;SDS011;11608;50.894;5.296;2023-05-31T11:29:20;21.75;;;19.85;;
22881;SDS011;11608;50.894;5.296;2023-05-31T11:34:21;21.88;;;19.80;;
22881;SDS011;11608;50.894;5.296;2023-05-31T11:36:49;21.65;;;19.85;;
22881;SDS011;11608;50.894;5.296;2023-05-31T11:39:18;22.15;;;20.05;;
22881;SDS011;11608;50.894;5.296;2023-05-31T11:41:45;22.52;;;20.33;;
22881;SDS011;11608;50.894;5.296;2023-05-31T11:44:11;21.75;;;19.67;;
22881;SDS011;11608;50.894;5.296;2023-05-31T11:46:43;20.70;;;18.80;;
22881;SDS011;11608;50.894;5.296;2023-05-31T11:49:10;20.98;;;18.77;;
22881;SDS011;11608;50.894;5.296;2023-05-31T11:51:36;21.50;;;19.58;;
22881;SDS011;11608;50.894;5.296;2023-05-31T11:54:03;23.05;;;20.70;;
22881;SDS011;11608;50.894;5.296;2023-05-31T11:56:30;22.27;;;20.13;;
22881;SDS011;11608;50.894;5.296;2023-05-31T11:58:58;22.10;;;20.20;;
22881;SDS011;11608;50.894;5.296;2023-05-31T12:01:24;22.75;;;20.73;;
22881;SDS011;11608;50.894;5.296;2023-05-31T12:03:59;23.48;;;21.35;;
22881;SDS011;11608;50.894;5.296;2023-05-31T12:06:26;23.02;;;21.02;;
22881;SDS011;11608;50.894;5.296;2023-05-31T12:08:53;23.50;;;21.23;;
22881;SDS011;11608;50.894;5.296;2023-05-31T12:11:19;22.33;;;20.17;;
22881;SDS011;11608;50.894;5.296;2023-05-31T12:13:46;22.13;;;20.20;;
22881;SDS011;11608;50.894;5.296;2023-05-31T12:16:12;23.42;;;20.73;;
22881;SDS011;11608;50.894;5.296;2023-05-31T12:18:38;21.95;;;20.05;;
22881;SDS011;11608;50.894;5.296;2023-05-31T12:21:08;22.08;;;19.92;;
22881;SDS011;11608;50.894;5.296;2023-05-31T12:23:55;21.50;;;19.65;;
22881;SDS011;11608;50.894;5.296;2023-05-31T12:26:23;21.52;;;19.73;;
22881;SDS011;11608;50.894;5.296;2023-05-31T12:28:52;22.83;;;20.60;;
22881;SDS011;11608;50.894;5.296;2023-05-31T12:31:19;21.60;;;19.75;;
22881;SDS011;11608;50.894;5.296;2023-05-31T12:34:07;22.75;;;20.45;;
22881;SDS011;11608;50.894;5.296;2023-05-31T12:36:45;21.58;;;19.73;;
22881;SDS011;11608;50.894;5.296;2023-05-31T12:39:18;21.60;;;19.90;;
22881;SDS011;11608;50.894;5.296;2023-05-31T12:41:44;22.27;;;20.23;;
22881;SDS011;11608;50.894;5.296;2023-05-31T12:44:15;22.17;;;20.17;;
22881;SDS011;11608;50.894;5.296;2023-05-31T12:46:44;21.88;;;19.58;;
22881;SDS011;11608;50.894;5.296;2023-05-31T12:49:12;21.20;;;19.23;;
22881;SDS011;11608;50.894;5.296;2023-05-31T12:51:38;21.95;;;19.83;;
22881;SDS011;11608;50.894;5.296;2023-05-31T12:54:10;22.45;;;20.30;;
22881;SDS011;11608;50.894;5.296;2023-05-31T12:56:36;23.00;;;20.40;;
22881;SDS011;11608;50.894;5.296;2023-05-31T12:59:02;22.63;;;20.40;;
22881;SDS011;11608;50.894;5.296;2023-05-31T13:01:29;22.17;;;19.95;;
22881;SDS011;11608;50.894;5.296;2023-05-31T13:03:56;21.40;;;19.70;;
22881;SDS011;11608;50.894;5.296;2023-05-31T13:06:22;21.88;;;20.02;;
22881;SDS011;11608;50.894;5.296;2023-05-31T13:08:48;21.60;;;19.80;;
22881;SDS011;11608;50.894;5.296;2023-05-31T13:11:14;21.80;;;19.90;;
22881;SDS011;11608;50.894;5.296;2023-05-31T13:13:40;21.98;;;20.27;;
22881;SDS011;11608;50.894;5.296;2023-05-31T13:16:07;22.67;;;20.58;;
22881;SDS011;11608;50.894;5.296;2023-05-31T13:18:33;22.60;;;20.60;;
22881;SDS011;11608;50.894;5.296;2023-05-31T13:20:59;22.58;;;20.35;;
22881;SDS011;11608;50.894;5.296;2023-05-31T13:23:25;21.38;;;19.50;;
22881;SDS011;11608;50.894;5.296;2023-05-31T13:25:51;24.50;;;19.73;;
22881;SDS011;11608;50.894;5.296;2023-05-31T13:28:17;21.52;;;19.70;;
22881;SDS011;11608;50.894;5.296;2023-05-31T13:30:44;22.88;;;19.50;;
22881;SDS011;11608;50.894;5.296;2023-05-31T13:33:10;21.42;;;19.30;;
22881;SDS011;11608;50.894;5.296;2023-05-31T13:35:36;22.50;;;20.05;;
22881;SDS011;11608;50.894;5.296;2023-05-31T13:38:02;21.52;;;19.52;;
22881;SDS011;11608;50.894;5.296;2023-05-31T13:40:28;22.08;;;19.70;;
22881;SDS011;11608;50.894;5.296;2023-05-31T13:42:54;21.40;;;19.38;;
22881;SDS011;11608;50.894;5.296;2023-05-31T13:45:20;21.30;;;19.38;;
22881;SDS011;11608;50.894;5.296;2023-05-31T13:47:46;21.88;;;19.60;;
22881;SDS011;11608;50.894;5.296;2023-05-31T13:50:12;21.25;;;19.23;;
22881;SDS011;11608;50.894;5.296;2023-05-31T13:52:38;21.08;;;19.08;;
22881;SDS011;11608;50.894;5.296;2023-05-31T13:55:05;20.98;;;19.10;;
22881;SDS011;11608;50.894;5.296;2023-05-31T13:57:31;22.38;;;20.27;;
22881;SDS011;11608;50.894;5.296;2023-05-31T13:59:57;23.48;;;20.10;;
22881;SDS011;11608;50.894;5.296;2023-05-31T14:02:23;21.10;;;19.25;;
22881;SDS011;11608;50.894;5.296;2023-05-31T14:04:49;20.98;;;19.05;;
22881;SDS011;11608;50.894;5.296;2023-05-31T14:07:15;21.50;;;19.30;;
22881;SDS011;11608;50.894;5.296;2023-05-31T14:09:41;21.02;;;19.20;;
22881;SDS011;11608;50.894;5.296;2023-05-31T14:12:08;20.80;;;19.00;;
22881;SDS011;11608;50.894;5.296;2023-05-31T14:14:34;21.40;;;19.60;;
22881;SDS011;11608;50.894;5.296;2023-05-31T14:17:00;20.75;;;18.85;;
22881;SDS011;11608;50.894;5.296;2023-05-31T14:19:26;21.42;;;19.25;;
22881;SDS011;11608;50.894;5.296;2023-05-31T14:21:52;21.55;;;19.30;;
22881;SDS011;11608;50.894;5.296;2023-05-31T14:24:18;21.25;;;19.42;;
22881;SDS011;11608;50.894;5.296;2023-05-31T14:26:44;20.70;;;18.67;;
22881;SDS011;11608;50.894;5.296;2023-05-31T14:29:10;21.17;;;19.13;;
22881;SDS011;11608;50.894;5.296;2023-05-31T14:31:36;20.35;;;18.55;;
22881;SDS011;11608;50.894;5.296;2023-05-31T14:34:03;21.45;;;19.58;;
22881;SDS011;11608;50.894;5.296;2023-05-31T14:36:29;20.33;;;18.55;;
22881;SDS011;11608;50.894;5.296;2023-05-31T14:38:55;21.38;;;19.35;;
22881;SDS011;11608;50.894;5.296;2023-05-31T14:41:22;21.80;;;19.65;;
22881;SDS011;11608;50.894;5.296;2023-05-31T14:43:48;21.25;;;19.23;;
22881;SDS011;11608;50.894;5.296;2023-05-31T14:46:14;21.08;;;19.42;;